Time;durP1;ratioP1;P1;durP2;ratioP2;P2;SDS_P1;SDS_P2;PMS_P1;PMS_P2;Temp;Humidity;BMP_temperature;BMP_pressure;BME280_temperature;BME280_humidity;BME280_pressure;Samples;Min_cycle;Max_cycle;Signal;HPM_P1;HPM_P2
2022/04/23 00:01:35;;;;;;;45.25;28.50;;;9.90;99.90;;;;;;5095785;22;20024;-82
2022/04/23 00:04:01;;;;;;;48.50;28.75;;;9.90;99.90;;;;;;5077314;28;20078;-84
2022/04/23 00:06:26;;;;;;;45.78;29.23;;;10.00;99.90;;;;;;5056492;28;20102;-83
2022/04/23 00:08:52;;;;;;;49.08;29.30;;;9.90;99.90;;;;;;5076557;28;20029;-82
2022/04/23 00:11:18;;;;;;;47.05;28.85;;;9.90;99.90;;;;;;5077423;28;20040;-82
2022/04/23 00:13:44;;;;;;;51.75;30.55;;;9.90;99.90;;;;;;5077566;28;20013;-83
2022/04/23 00:16:10;;;;;;;50.88;29.58;;;9.90;99.90;;;;;;5060403;28;20113;-82
2022/04/23 00:18:36;;;;;;;50.30;29.92;;;10.00;99.90;;;;;;5076709;28;20017;-82
2022/04/23 00:21:03;;;;;;;55.22;30.85;;;10.00;99.90;;;;;;5059553;28;20037;-84
2022/04/23 00:23:31;;;;;;;48.50;30.65;;;10.00;99.90;;;;;;5075142;28;20005;-83
2022/04/23 00:25:58;;;;;;;50.10;29.90;;;10.00;99.90;;;;;;5076805;28;20056;-81
2022/04/23 00:28:24;;;;;;;55.95;33.47;;;10.00;99.90;;;;;;5055696;28;20024;-83
2022/04/23 00:30:52;;;;;;;52.65;31.77;;;10.00;99.90;;;;;;5072535;28;20033;-85
2022/04/23 00:33:19;;;;;;;50.97;31.10;;;10.00;99.90;;;;;;5037626;28;20032;-84
2022/04/23 00:35:45;;;;;;;54.88;32.63;;;10.00;99.90;;;;;;5072088;28;20009;-84
2022/04/23 00:38:11;;;;;;;56.15;32.08;;;10.00;99.90;;;;;;5052141;28;20100;-84
2022/04/23 00:40:40;;;;;;;54.05;30.55;;;10.00;99.90;;;;;;5048305;28;20033;-84
2022/04/23 00:43:10;;;;;;;55.05;32.38;;;10.00;99.90;;;;;;5057740;28;20021;-83
2022/04/23 00:45:36;;;;;;;54.08;31.52;;;10.00;99.90;;;;;;5037243;28;20028;-83
2022/04/23 00:48:02;;;;;;;55.53;31.40;;;10.00;99.90;;;;;;5054275;28;20029;-86
2022/04/23 00:50:29;;;;;;;58.60;33.45;;;10.00;99.90;;;;;;5037249;28;20029;-85
2022/04/23 00:53:00;;;;;;;54.58;32.60;;;10.10;99.90;;;;;;5060626;28;20092;-84
2022/04/23 00:55:28;;;;;;;58.45;33.75;;;10.00;99.90;;;;;;5063299;28;20059;-85
2022/04/23 00:57:56;;;;;;;59.22;33.58;;;10.00;99.90;;;;;;5059874;28;20075;-82
2022/04/23 01:00:22;;;;;;;57.33;32.40;;;10.00;99.90;;;;;;5072763;28;20028;-82
2022/04/23 01:02:47;;;;;;;58.17;32.67;;;10.00;99.90;;;;;;5067304;28;20034;-85
2022/04/23 01:05:14;;;;;;;55.95;33.80;;;10.00;99.90;;;;;;5063209;28;20017;-83
2022/04/23 01:07:44;;;;;;;58.22;32.85;;;10.00;99.90;;;;;;5047329;28;20013;-86
2022/04/23 01:10:11;;;;;;;63.05;34.88;;;10.00;99.90;;;;;;5064083;28;20025;-86
2022/04/23 01:12:38;;;;;;;59.08;35.53;;;10.00;99.90;;;;;;5073712;28;20036;-82
2022/04/23 01:15:08;;;;;;;64.03;35.50;;;10.00;99.90;;;;;;5076980;28;20025;-83
2022/04/23 01:17:36;;;;;;;64.22;36.20;;;10.00;99.90;;;;;;5074346;28;20048;-85
2022/04/23 01:20:07;;;;;;;62.38;36.30;;;10.00;99.90;;;;;;5067582;28;20025;-82
2022/04/23 01:22:34;;;;;;;68.55;37.60;;;10.10;99.90;;;;;;5071411;28;20107;-85
2022/04/23 01:25:04;;;;;;;64.65;37.30;;;10.10;99.90;;;;;;5071304;28;20048;-85
2022/04/23 01:27:30;;;;;;;72.38;39.45;;;10.00;99.90;;;;;;5071367;28;20178;-85
2022/04/23 01:29:56;;;;;;;66.32;37.20;;;10.10;99.90;;;;;;5041577;28;20001;-82
2022/04/23 01:32:24;;;;;;;66.88;37.90;;;10.10;99.90;;;;;;5063906;28;20056;-83
2022/04/23 01:34:50;;;;;;;70.57;38.97;;;10.10;99.90;;;;;;5081040;28;20021;-82
2022/04/23 01:37:17;;;;;;;73.57;39.83;;;10.10;99.90;;;;;;5063909;28;20029;-82
2022/04/23 01:39:44;;;;;;;73.45;39.75;;;10.10;99.90;;;;;;5062523;28;20036;-82
2022/04/23 01:42:11;;;;;;;69.50;40.13;;;10.10;99.90;;;;;;5077030;28;20033;-82
2022/04/23 01:44:37;;;;;;;71.55;38.75;;;10.10;99.90;;;;;;5076467;28;20035;-81
2022/04/23 01:47:03;;;;;;;72.07;39.67;;;10.10;99.90;;;;;;5074848;28;20060;-84
2022/04/23 01:49:29;;;;;;;79.65;40.92;;;10.10;99.90;;;;;;5069669;28;20070;-83
2022/04/23 01:51:54;;;;;;;78.10;41.17;;;10.10;99.90;;;;;;5070986;28;20038;-83
2022/04/23 01:54:20;;;;;;;74.93;40.63;;;10.10;99.90;;;;;;5073307;28;20021;-84
2022/04/23 01:56:46;;;;;;;76.60;41.10;;;10.10;99.90;;;;;;5055559;28;20029;-84
2022/04/23 01:59:12;;;;;;;72.47;40.65;;;10.10;99.90;;;;;;5072747;28;20089;-84
2022/04/23 02:01:38;;;;;;;81.72;43.75;;;10.10;99.90;;;;;;5073015;28;20035;-85
2022/04/23 02:04:06;;;;;;;78.85;41.25;;;10.00;99.90;;;;;;5071634;28;20044;-86
2022/04/23 02:06:33;;;;;;;82.38;42.08;;;10.00;99.90;;;;;;5055729;28;20055;-84
2022/04/23 02:09:00;;;;;;;80.65;42.20;;;10.00;99.90;;;;;;5072173;28;20028;-85
2022/04/23 02:11:26;;;;;;;74.68;40.05;;;10.10;99.90;;;;;;5072724;28;20120;-86
2022/04/23 02:13:52;;;;;;;77.22;43.15;;;10.00;99.90;;;;;;5072282;28;20112;-85
2022/04/23 02:16:18;;;;;;;77.82;42.55;;;10.00;99.90;;;;;;5072778;28;20021;-85
2022/04/23 02:18:45;;;;;;;83.30;42.70;;;10.00;99.90;;;;;;5052139;28;20024;-84
2022/04/23 02:21:11;;;;;;;78.20;42.05;;;10.10;99.90;;;;;;5075660;28;20025;-83
2022/04/23 02:23:37;;;;;;;80.93;41.67;;;10.00;99.90;;;;;;5061606;28;20021;-84
2022/04/23 02:26:05;;;;;;;79.65;42.05;;;10.00;99.90;;;;;;5078726;28;20033;-86
2022/04/23 02:28:31;;;;;;;75.35;38.60;;;10.00;99.90;;;;;;5050617;28;20082;-85
2022/04/23 02:30:57;;;;;;;74.35;39.88;;;10.10;99.90;;;;;;5052625;28;20480;-85
2022/04/23 02:33:23;;;;;;;73.28;39.17;;;10.00;99.90;;;;;;5070845;28;20013;-84
2022/04/23 02:35:50;;;;;;;72.80;38.67;;;10.00;99.90;;;;;;5052712;28;20076;-84
2022/04/23 02:38:17;;;;;;;75.38;38.08;;;10.00;99.90;;;;;;5065675;28;20059;-84
2022/04/23 02:40:43;;;;;;;72.38;39.40;;;10.00;99.90;;;;;;5052033;28;20033;-85
2022/04/23 02:43:12;;;;;;;69.22;37.63;;;10.00;99.90;;;;;;5074839;28;20025;-86
2022/04/23 02:45:41;;;;;;;74.72;39.00;;;10.10;99.90;;;;;;5070214;28;20064;-84
2022/04/23 02:48:10;;;;;;;78.35;39.15;;;10.00;99.90;;;;;;5074050;28;20050;-85
2022/04/23 02:50:38;;;;;;;69.22;36.67;;;10.00;99.90;;;;;;5075807;28;20108;-85
2022/04/23 02:53:05;;;;;;;66.93;37.05;;;10.00;99.90;;;;;;5070757;28;20077;-85
2022/04/23 02:55:32;;;;;;;67.32;35.65;;;10.00;99.90;;;;;;5070740;28;20029;-86
2022/04/23 02:58:09;;;;;;;67.18;36.58;;;9.90;99.90;;;;;;5071118;28;20039;-83
2022/04/23 03:00:41;;;;;;;67.22;34.85;;;9.90;99.90;;;;;;5072756;28;20068;-83
2022/04/23 03:03:11;;;;;;;67.70;37.25;;;9.90;99.90;;;;;;5075306;28;20072;-84
2022/04/23 03:05:41;;;;;;;71.32;35.53;;;9.90;99.90;;;;;;5077084;28;20029;-84
2022/04/23 03:08:08;;;;;;;62.38;34.13;;;9.90;99.90;;;;;;5070285;28;20056;-85
2022/04/23 03:10:33;;;;;;;65.20;36.42;;;9.90;99.90;;;;;;5070827;28;20025;-85
2022/04/23 03:12:59;;;;;;;70.38;36.35;;;9.90;99.90;;;;;;5071098;28;20393;-84
2022/04/23 03:15:26;;;;;;;58.38;34.63;;;9.90;99.90;;;;;;5071395;28;20028;-83
2022/04/23 03:18:13;;;;;;;62.13;33.42;;;9.80;99.90;;;;;;5070463;28;20047;-83
2022/04/23 03:20:43;;;;;;;60.60;33.83;;;9.80;99.90;;;;;;5073695;28;20020;-82
2022/04/23 03:23:09;;;;;;;66.85;36.03;;;9.80;99.90;;;;;;5078498;28;20028;-83
2022/04/23 03:25:35;;;;;;;67.85;34.28;;;9.80;99.90;;;;;;5075771;28;20044;-85
2022/04/23 03:28:02;;;;;;;62.08;33.85;;;9.80;99.90;;;;;;5055849;28;20033;-85
2022/04/23 03:30:28;;;;;;;62.92;33.85;;;9.70;99.90;;;;;;5073310;28;20013;-85
2022/04/23 03:32:54;;;;;;;61.20;32.03;;;9.70;99.90;;;;;;5074840;28;20028;-84
2022/04/23 03:35:20;;;;;;;61.00;33.28;;;9.80;99.90;;;;;;5058048;28;20021;-84
2022/04/23 03:37:47;;;;;;;60.33;33.17;;;9.80;99.90;;;;;;5074757;28;20032;-85
2022/04/23 03:40:13;;;;;;;62.33;34.10;;;9.80;99.90;;;;;;5053790;28;20017;-85
2022/04/23 03:42:40;;;;;;;63.13;35.83;;;9.80;99.90;;;;;;5075575;28;20129;-84
2022/04/23 03:45:07;;;;;;;65.55;35.05;;;9.80;99.90;;;;;;5060011;28;20020;-85
2022/04/23 03:47:33;;;;;;;58.72;31.95;;;9.70;99.90;;;;;;5069909;28;20040;-85
2022/04/23 03:50:07;;;;;;;61.38;34.22;;;9.70;99.90;;;;;;5054063;28;20051;-86
2022/04/23 03:52:33;;;;;;;65.75;34.42;;;9.70;99.90;;;;;;5069875;28;20103;-85
2022/04/23 03:54:59;;;;;;;57.13;31.35;;;9.70;99.90;;;;;;5074687;28;20112;-85
2022/04/23 03:57:25;;;;;;;59.30;32.92;;;9.70;99.90;;;;;;5058981;28;20025;-82
2022/04/23 03:59:51;;;;;;;59.75;33.97;;;9.70;99.90;;;;;;5077407;28;20044;-84
2022/04/23 04:02:16;;;;;;;53.53;32.05;;;9.70;99.90;;;;;;5057811;28;20024;-84
2022/04/23 04:04:43;;;;;;;56.13;31.27;;;9.60;99.90;;;;;;5063337;28;20033;-84
2022/04/23 04:07:10;;;;;;;58.38;31.40;;;9.60;99.90;;;;;;5052246;28;20026;-86
2022/04/23 04:09:35;;;;;;;57.90;30.52;;;9.60;99.90;;;;;;5050312;28;20110;-86
2022/04/23 04:12:01;;;;;;;62.42;30.38;;;9.60;99.90;;;;;;5046700;28;20356;-86
2022/04/23 04:14:30;;;;;;;64.13;31.88;;;9.60;99.90;;;;;;5048906;28;20465;-88
2022/04/23 04:17:00;;;;;;;59.47;32.47;;;9.50;99.90;;;;;;5051521;28;20048;-85
2022/04/23 04:19:27;;;;;;;58.22;32.08;;;9.60;99.90;;;;;;5052455;28;20040;-85
2022/04/23 04:21:54;;;;;;;61.55;31.00;;;9.50;99.90;;;;;;5053850;28;20005;-84
2022/04/23 04:24:20;;;;;;;54.88;30.50;;;9.50;99.90;;;;;;5056366;28;20049;-82
2022/04/23 04:26:49;;;;;;;49.75;28.20;;;9.50;99.90;;;;;;5051906;28;20036;-84
2022/04/23 04:29:15;;;;;;;47.47;28.65;;;9.50;99.90;;;;;;5049646;28;20037;-87
2022/04/23 04:31:47;;;;;;;49.63;27.77;;;9.50;99.90;;;;;;5032588;28;20054;-85
2022/04/23 04:34:24;;;;;;;52.25;29.52;;;9.50;99.90;;;;;;5052861;28;20026;-83
2022/04/23 04:36:51;;;;;;;51.92;28.98;;;9.60;99.90;;;;;;5052257;28;20020;-85
2022/04/23 04:39:18;;;;;;;49.40;29.13;;;9.50;99.90;;;;;;5053480;28;20025;-86
2022/04/23 04:41:44;;;;;;;49.47;27.80;;;9.60;99.90;;;;;;5054516;28;20056;-84
2022/04/23 04:44:10;;;;;;;49.72;27.92;;;9.60;99.90;;;;;;5036432;28;20030;-85
2022/04/23 04:46:38;;;;;;;49.55;26.98;;;9.60;99.90;;;;;;5035551;28;20037;-86
2022/04/23 04:49:04;;;;;;;47.92;26.25;;;9.60;99.90;;;;;;5034364;28;20032;-86
2022/04/23 04:51:31;;;;;;;49.97;26.67;;;9.60;99.90;;;;;;5030419;28;20111;-86
2022/04/23 04:53:57;;;;;;;47.00;26.83;;;9.70;99.90;;;;;;5030270;28;20489;-86
2022/04/23 04:56:23;;;;;;;47.80;26.10;;;9.60;99.90;;;;;;5051518;28;20030;-85
2022/04/23 04:58:49;;;;;;;43.47;25.38;;;9.60;99.90;;;;;;5035140;28;20025;-83
2022/04/23 05:01:16;;;;;;;44.58;25.13;;;9.60;99.90;;;;;;5033241;28;20109;-86
2022/04/23 05:03:43;;;;;;;40.53;24.02;;;9.60;99.90;;;;;;5023761;28;20093;-83
2022/04/23 05:06:10;;;;;;;43.97;22.98;;;9.60;99.90;;;;;;5055089;28;20045;-85
2022/04/23 05:08:36;;;;;;;41.55;24.15;;;9.60;99.90;;;;;;5052903;28;20041;-83
2022/04/23 05:11:06;;;;;;;38.40;23.20;;;9.60;99.90;;;;;;5024000;28;20033;-82
2022/04/23 05:13:32;;;;;;;38.47;22.58;;;9.70;99.90;;;;;;5060433;28;20043;-82
2022/04/23 05:15:58;;;;;;;43.10;23.90;;;9.70;99.90;;;;;;5060585;28;20053;-83
2022/04/23 05:18:24;;;;;;;38.30;22.20;;;9.70;99.90;;;;;;5043505;28;20017;-83
2022/04/23 05:20:50;;;;;;;39.08;22.02;;;9.70;99.90;;;;;;5056377;28;20061;-84
2022/04/23 05:23:16;;;;;;;38.17;21.38;;;9.70;99.90;;;;;;5062939;28;20444;-82
2022/04/23 05:25:42;;;;;;;33.22;20.77;;;9.70;99.90;;;;;;5057820;28;20120;-84
2022/04/23 05:28:07;;;;;;;37.85;21.25;;;9.70;99.90;;;;;;5078792;28;20017;-82
2022/04/23 05:30:37;;;;;;;34.58;21.23;;;9.70;99.90;;;;;;5062699;28;20029;-80
2022/04/23 05:33:06;;;;;;;36.05;20.70;;;9.60;99.90;;;;;;5080562;28;20044;-80
2022/04/23 05:35:33;;;;;;;34.30;20.92;;;9.60;99.90;;;;;;5080281;28;20024;-82
2022/04/23 05:37:59;;;;;;;38.13;22.00;;;9.60;99.90;;;;;;5062963;28;20032;-82
2022/04/23 05:40:25;;;;;;;42.58;21.50;;;9.60;99.90;;;;;;5080326;28;20080;-84
2022/04/23 05:42:55;;;;;;;38.22;20.58;;;9.70;99.90;;;;;;5080071;28;20036;-81
2022/04/23 05:45:20;;;;;;;37.13;20.95;;;9.70;99.90;;;;;;5080323;28;20025;-81
2022/04/23 05:47:46;;;;;;;37.55;21.48;;;9.80;99.90;;;;;;5079561;28;20082;-84
2022/04/23 05:50:12;;;;;;;36.88;20.30;;;9.90;99.90;;;;;;5075746;28;20029;-85
2022/04/23 05:52:37;;;;;;;35.78;20.88;;;9.80;99.90;;;;;;5077743;28;20077;-81
2022/04/23 05:55:05;;;;;;;36.03;20.38;;;9.70;99.90;;;;;;5079707;28;20092;-80
2022/04/23 05:57:31;;;;;;;36.95;21.45;;;9.70;99.90;;;;;;5079054;28;20088;-84
2022/04/23 05:59:57;;;;;;;38.17;20.38;;;9.80;99.90;;;;;;5057940;28;20024;-82
2022/04/23 06:02:23;;;;;;;35.50;20.13;;;9.80;99.90;;;;;;5107613;23;20048;-78
2022/04/23 06:04:49;;;;;;;34.63;19.40;;;9.90;99.90;;;;;;5080443;28;20054;-78
2022/04/23 06:07:19;;;;;;;44.15;21.08;;;9.90;99.90;;;;;;5097223;28;20050;-78
2022/04/23 06:09:45;;;;;;;37.22;20.45;;;9.90;99.90;;;;;;5096895;28;20099;-80
2022/04/23 06:12:12;;;;;;;36.67;20.05;;;9.90;99.90;;;;;;5098073;28;20033;-79
2022/04/23 06:14:38;;;;;;;36.72;20.10;;;9.90;99.90;;;;;;5097550;28;20033;-79
2022/04/23 06:17:12;;;;;;;35.80;20.75;;;9.90;99.90;;;;;;5097553;28;20020;-79
2022/04/23 06:19:39;;;;;;;33.22;19.83;;;9.90;99.90;;;;;;5096958;28;20036;-81
2022/04/23 06:22:05;;;;;;;34.50;20.13;;;9.90;99.90;;;;;;5096833;28;20013;-80
2022/04/23 06:24:32;;;;;;;37.20;20.20;;;10.00;99.90;;;;;;5098428;28;20024;-81
2022/04/23 06:26:58;;;;;;;37.03;20.50;;;10.00;99.90;;;;;;5098757;28;20016;-79
2022/04/23 06:29:24;;;;;;;36.75;20.20;;;9.90;99.90;;;;;;5098341;28;20013;-79
2022/04/23 06:31:50;;;;;;;36.63;21.35;;;9.90;99.90;;;;;;5098520;28;20037;-79
2022/04/23 06:34:16;;;;;;;35.97;20.70;;;10.00;99.90;;;;;;5093972;28;20028;-81
2022/04/23 06:36:42;;;;;;;32.67;20.10;;;9.90;99.90;;;;;;5089330;28;20025;-79
2022/04/23 06:39:08;;;;;;;38.38;20.20;;;9.90;99.90;;;;;;5087542;28;20029;-80
2022/04/23 06:41:34;;;;;;;33.08;19.55;;;9.90;99.90;;;;;;5082740;28;20020;-81
2022/04/23 06:44:00;;;;;;;34.63;20.23;;;10.00;99.90;;;;;;5080919;28;20105;-83
2022/04/23 06:46:27;;;;;;;34.25;19.80;;;10.00;99.90;;;;;;5082078;28;20020;-80
2022/04/23 06:48:53;;;;;;;31.45;19.27;;;10.00;99.90;;;;;;5081942;28;20033;-83
2022/04/23 06:51:19;;;;;;;34.95;19.85;;;10.00;99.90;;;;;;5092669;28;20017;-79
2022/04/23 06:53:45;;;;;;;35.15;20.38;;;10.00;99.90;;;;;;5096645;28;20021;-81
2022/04/23 06:56:11;;;;;;;38.78;21.55;;;10.10;99.90;;;;;;5086601;28;20187;-79
2022/04/23 06:58:37;;;;;;;33.13;19.08;;;10.10;99.90;;;;;;5092090;28;20036;-80
2022/04/23 07:01:03;;;;;;;35.03;20.15;;;10.20;99.90;;;;;;5095611;28;20542;-79
2022/04/23 07:03:29;;;;;;;35.53;19.85;;;10.30;99.90;;;;;;5097154;28;20020;-76
2022/04/23 07:05:55;;;;;;;34.80;19.88;;;10.30;99.90;;;;;;5096642;28;20028;-77
2022/04/23 07:08:21;;;;;;;39.05;22.08;;;10.30;99.90;;;;;;5096954;28;20051;-79
2022/04/23 07:10:48;;;;;;;38.05;20.77;;;10.30;99.90;;;;;;5094320;28;20069;-77
2022/04/23 07:13:15;;;;;;;39.85;22.85;;;10.30;99.90;;;;;;5097048;28;20411;-80
2022/04/23 07:15:41;;;;;;;36.35;20.95;;;10.20;99.90;;;;;;5089439;28;20036;-81
2022/04/23 07:18:08;;;;;;;35.58;21.63;;;10.20;99.90;;;;;;5083558;28;20031;-80
2022/04/23 07:20:35;;;;;;;40.00;23.13;;;10.20;99.90;;;;;;5082091;28;20452;-81
2022/04/23 07:25:45;;;;;;;43.03;23.70;;;10.20;99.90;;;;;;5080431;28;20037;-79
2022/04/23 07:28:11;;;;;;;38.22;22.67;;;10.30;99.90;;;;;;5078077;28;20028;-80
2022/04/23 07:30:37;;;;;;;38.42;22.95;;;10.30;99.90;;;;;;5080607;28;20534;-80
2022/04/23 07:33:03;;;;;;;38.22;22.80;;;10.40;99.90;;;;;;5065422;28;20024;-82
2022/04/23 07:38:32;;;;;;;41.28;24.52;;;10.60;99.90;;;;;;5086713;28;20033;-81
2022/04/23 07:40:57;;;;;;;40.78;23.80;;;10.60;99.90;;;;;;5083339;28;20021;-81
2022/04/23 07:43:23;;;;;;;39.15;23.35;;;10.70;99.90;;;;;;5082462;28;20059;-81
2022/04/23 07:45:49;;;;;;;45.97;25.52;;;10.80;99.90;;;;;;5109480;28;20119;-78
2022/04/23 07:48:15;;;;;;;40.30;24.00;;;11.00;99.90;;;;;;5089337;28;20063;-82
2022/04/23 07:50:42;;;;;;;49.60;25.65;;;11.10;99.90;;;;;;5093889;28;20051;-81
2022/04/23 07:53:09;;;;;;;41.35;23.67;;;11.10;99.90;;;;;;5088707;28;20082;-81
2022/04/23 07:55:38;;;;;;;37.15;22.88;;;11.30;99.90;;;;;;5084583;28;20309;-82
2022/04/23 07:58:05;;;;;;;39.88;23.50;;;11.40;99.90;;;;;;5088666;28;20028;-81
2022/04/23 08:00:31;;;;;;;38.88;23.45;;;11.60;99.90;;;;;;5080389;28;20081;-82
2022/04/23 08:03:03;;;;;;;40.65;23.40;;;11.80;99.90;;;;;;5079718;28;20488;-82
2022/04/23 08:05:29;;;;;;;40.13;25.33;;;11.80;99.90;;;;;;5083731;28;20084;-81
2022/04/23 08:07:55;;;;;;;44.95;23.05;;;11.90;99.90;;;;;;5082412;28;20416;-84
2022/04/23 08:10:21;;;;;;;42.65;23.73;;;12.00;99.90;;;;;;5081687;28;20028;-82
2022/04/23 08:12:47;;;;;;;45.28;24.58;;;12.20;99.90;;;;;;5099870;28;20028;-83
2022/04/23 08:15:13;;;;;;;38.58;24.10;;;12.40;99.90;;;;;;5084514;28;20027;-81
2022/04/23 08:17:39;;;;;;;38.55;24.13;;;12.30;99.90;;;;;;5086157;28;20024;-85
2022/04/23 08:20:06;;;;;;;41.33;23.83;;;12.40;99.90;;;;;;5084613;28;20040;-82
2022/04/23 08:22:32;;;;;;;42.00;24.35;;;12.50;99.90;;;;;;5085082;28;20492;-81
2022/04/23 08:24:58;;;;;;;40.40;24.20;;;12.50;99.90;;;;;;5082611;28;20029;-82
2022/04/23 08:27:24;;;;;;;34.47;21.98;;;12.70;99.90;;;;;;5083471;28;20637;-82
2022/04/23 08:32:35;;;;;;;36.63;22.50;;;13.10;99.90;;;;;;5080420;28;20040;-82
2022/04/23 08:35:02;;;;;;;37.15;23.02;;;13.40;99.90;;;;;;5081035;28;20035;-79
2022/04/23 08:37:27;;;;;;;39.05;23.95;;;13.60;99.90;;;;;;5085512;28;20047;-79
2022/04/23 08:39:53;;;;;;;37.50;23.08;;;13.70;99.90;;;;;;5100628;28;20028;-80
2022/04/23 08:42:19;;;;;;;39.88;24.48;;;13.80;99.90;;;;;;5092639;28;20084;-81
2022/04/23 08:44:45;;;;;;;41.40;24.33;;;13.90;99.90;;;;;;5080612;28;20391;-79
2022/04/23 08:47:12;;;;;;;35.60;23.27;;;13.90;99.90;;;;;;5081781;28;20032;-80
2022/04/23 08:49:42;;;;;;;39.75;24.92;;;14.00;99.90;;;;;;5046638;28;20028;-81
2022/04/23 08:52:24;;;;;;;38.67;24.52;;;14.10;99.90;;;;;;5079279;28;20104;-80
2022/04/23 08:54:52;;;;;;;40.80;24.67;;;14.10;99.90;;;;;;5079225;28;20029;-83
2022/04/23 08:57:18;;;;;;;38.42;23.77;;;14.20;99.90;;;;;;5078830;28;20392;-82
2022/04/23 08:59:48;;;;;;;38.38;25.13;;;14.20;99.90;;;;;;5080109;28;20025;-81
2022/04/23 09:02:14;;;;;;;36.55;23.83;;;14.20;99.90;;;;;;5078797;28;20037;-81
2022/04/23 09:04:44;;;;;;;34.95;23.00;;;14.00;99.90;;;;;;5080836;28;20091;-82
2022/04/23 09:07:18;;;;;;;39.47;23.42;;;14.20;99.90;;;;;;5080206;28;20067;-81
2022/04/23 09:09:49;;;;;;;35.00;23.65;;;14.50;99.90;;;;;;5080319;28;20029;-80
2022/04/23 09:12:16;;;;;;;36.05;22.90;;;14.70;99.90;;;;;;5079936;28;20072;-83
2022/04/23 09:14:42;;;;;;;38.05;24.65;;;14.60;99.90;;;;;;5081653;28;20031;-79
2022/04/23 09:25:35;;;;;;;36.25;23.60;;;14.90;99.90;;;;;;5083268;28;20027;-79
2022/04/23 09:28:22;;;;;;;37.83;24.92;;;15.00;99.90;;;;;;5084459;28;20033;-80
2022/04/23 09:30:50;;;;;;;37.50;24.02;;;14.60;99.90;;;;;;5079242;28;20081;-80
2022/04/23 09:33:16;;;;;;;35.00;23.25;;;14.70;99.90;;;;;;5077851;28;20668;-81
2022/04/23 09:36:12;;;;;;;35.95;21.80;;;15.20;99.90;;;;;;5078772;28;20032;-81
2022/04/23 09:38:39;;;;;;;35.88;23.90;;;15.70;99.90;;;;;;5064641;28;20037;-82
2022/04/23 09:41:17;;;;;;;35.08;22.65;;;15.70;99.90;;;;;;5081462;28;20475;-80
2022/04/23 09:43:44;;;;;;;36.20;23.95;;;16.00;99.90;;;;;;5093266;28;20503;-80
2022/04/23 09:46:10;;;;;;;37.97;23.08;;;16.20;99.90;;;;;;5084821;28;20024;-80
2022/04/23 09:48:43;;;;;;;37.78;24.02;;;16.30;99.90;;;;;;5083383;28;20492;-81
2022/04/23 09:51:26;;;;;;;33.45;23.23;;;16.50;99.90;;;;;;5084007;28;20051;-80
2022/04/23 09:53:53;;;;;;;33.38;22.73;;;16.70;99.90;;;;;;5082065;28;20032;-81
2022/04/23 09:56:26;;;;;;;37.42;24.02;;;16.80;99.90;;;;;;5084248;28;20021;-81
2022/04/23 09:58:52;;;;;;;35.05;23.17;;;16.80;99.90;;;;;;5082067;28;20036;-82
2022/04/23 10:01:20;;;;;;;34.30;23.95;;;16.80;99.90;;;;;;5083272;28;20090;-82
2022/04/23 10:03:52;;;;;;;32.72;22.77;;;17.40;99.90;;;;;;5084249;28;20472;-81
2022/04/23 10:06:20;;;;;;;33.45;22.70;;;17.40;99.90;;;;;;5082828;28;20048;-81
2022/04/23 10:08:52;;;;;;;37.75;24.58;;;17.40;99.90;;;;;;5083901;28;20522;-80
2022/04/23 10:11:26;;;;;;;40.00;25.70;;;17.30;99.90;;;;;;5096711;28;20062;-80
2022/04/23 10:14:20;;;;;;;33.70;23.33;;;17.10;99.90;;;;;;5093757;28;20033;-83
2022/04/23 10:16:48;;;;;;;38.80;25.33;;;17.20;99.90;;;;;;5096126;28;20063;-77
2022/04/23 10:19:15;;;;;;;34.38;23.00;;;17.50;99.90;;;;;;5093733;28;20025;-81
2022/04/23 10:22:11;;;;;;;34.55;24.08;;;17.70;99.90;;;;;;5073621;28;20036;-80
2022/04/23 10:24:37;;;;;;;34.75;23.60;;;17.90;99.90;;;;;;5091470;28;20036;-80
2022/04/23 10:27:07;;;;;;;32.90;23.10;;;18.20;99.90;;;;;;5086164;28;20039;-82
2022/04/23 10:29:33;;;;;;;34.85;23.33;;;18.50;99.90;;;;;;5084582;28;20060;-80
2022/04/23 10:32:12;;;;;;;30.70;21.88;;;19.00;99.10;;;;;;5103589;28;20029;-80
2022/04/23 10:34:39;;;;;;;33.03;23.67;;;19.50;98.20;;;;;;5092768;28;20024;-80
2022/04/23 10:37:20;;;;;;;30.55;22.13;;;19.60;97.90;;;;;;5090967;28;20028;-80
2022/04/23 10:39:52;;;;;;;33.53;23.92;;;19.90;97.00;;;;;;5089751;28;20025;-81
2022/04/23 10:42:21;;;;;;;33.28;23.50;;;20.00;96.40;;;;;;5084374;28;20482;-78
2022/04/23 10:44:48;;;;;;;34.08;24.02;;;19.00;97.40;;;;;;5081844;28;20020;-80
2022/04/23 10:47:16;;;;;;;32.35;23.80;;;19.00;97.80;;;;;;5084971;28;20032;-80
2022/04/23 10:49:42;;;;;;;34.70;23.63;;;19.00;97.90;;;;;;5082953;28;20328;-82
2022/04/23 10:52:08;;;;;;;34.53;22.90;;;19.80;97.40;;;;;;5065226;28;20078;-80
2022/04/23 10:54:39;;;;;;;31.90;22.48;;;20.90;95.80;;;;;;5086067;28;20141;-80
2022/04/23 10:57:15;;;;;;;29.08;20.95;;;21.80;94.40;;;;;;5094818;28;20032;-81
2022/04/23 10:59:45;;;;;;;27.83;19.73;;;23.20;92.70;;;;;;5081384;28;20106;-81
2022/04/23 11:02:23;;;;;;;29.55;22.15;;;24.30;91.00;;;;;;5080311;28;20389;-79
2022/04/23 11:12:14;;;;;;;30.33;22.50;;;24.40;88.00;;;;;;5083487;28;20055;-80
2022/04/23 11:13:30;;;;;;;29.88;21.38;;;22.10;89.30;;;;;;5083275;28;20063;-82
2022/04/23 11:16:06;;;;;;;31.15;22.15;;;21.70;90.80;;;;;;5079046;28;20024;-81
2022/04/23 11:18:33;;;;;;;29.30;21.35;;;21.80;90.60;;;;;;5079572;28;20028;-80
2022/04/23 11:21:23;;;;;;;27.90;21.63;;;22.00;90.50;;;;;;5078359;28;20024;-81
2022/04/23 11:23:50;;;;;;;28.75;21.55;;;22.20;90.30;;;;;;5080348;28;20056;-80
2022/04/23 11:26:18;;;;;;;30.85;20.05;;;22.50;89.90;;;;;;5080907;28;20031;-81
2022/04/23 11:28:46;;;;;;;26.33;20.90;;;22.90;89.00;;;;;;5079785;28;20032;-80
2022/04/23 11:31:15;;;;;;;28.60;21.88;;;22.90;88.80;;;;;;5080455;28;20472;-78
2022/04/23 11:33:58;;;;;;;29.48;21.83;;;22.60;88.40;;;;;;5079016;28;20104;-79
2022/04/23 11:36:28;;;;;;;30.70;22.85;;;22.10;88.90;;;;;;5081126;28;20025;-81
2022/04/23 11:38:55;;;;;;;31.33;22.08;;;21.40;90.00;;;;;;5085345;28;20036;-82
2022/04/23 11:41:32;;;;;;;29.70;22.48;;;21.10;90.80;;;;;;5087922;28;20021;-80
2022/04/23 11:44:09;;;;;;;30.50;22.13;;;20.90;91.40;;;;;;5079099;28;20101;-80
2022/04/23 11:46:44;;;;;;;34.75;23.35;;;20.70;91.40;;;;;;5095827;28;20033;-81
2022/04/23 11:49:10;;;;;;;35.72;24.27;;;20.00;91.90;;;;;;5082065;28;20090;-81
2022/04/23 11:51:40;;;;;;;33.05;23.05;;;19.00;93.20;;;;;;5078841;28;20033;-82
2022/04/23 11:54:06;;;;;;;34.58;23.35;;;19.00;93.70;;;;;;5080210;28;20037;-82
2022/04/23 11:56:34;;;;;;;33.78;22.88;;;19.00;93.80;;;;;;5082070;28;20024;-81
2022/04/23 11:59:05;;;;;;;31.15;22.73;;;18.60;93.80;;;;;;5079738;28;20024;-80
2022/04/23 12:01:31;;;;;;;32.33;22.88;;;18.30;94.70;;;;;;5079682;28;20107;-81
2022/04/23 12:03:58;;;;;;;29.75;21.40;;;18.00;95.30;;;;;;5093082;22;20060;-84
2022/04/23 12:06:27;;;;;;;30.52;20.95;;;18.50;94.90;;;;;;5098082;28;20025;-86
2022/04/23 12:09:05;;;;;;;33.58;21.77;;;19.20;93.50;;;;;;5080846;28;20055;-86
2022/04/23 12:11:31;;;;;;;29.10;19.90;;;19.40;93.10;;;;;;5096549;28;20066;-86
2022/04/23 12:14:00;;;;;;;30.73;21.30;;;19.70;92.60;;;;;;5093244;28;20508;-87
2022/04/23 12:16:31;;;;;;;28.02;21.50;;;19.90;92.70;;;;;;5093372;28;20021;-86
2022/04/23 12:19:08;;;;;;;32.30;23.55;;;19.10;93.50;;;;;;5096115;28;20030;-86
2022/04/23 12:21:35;;;;;;;33.35;23.95;;;18.50;94.40;;;;;;5097736;28;20043;-86
2022/04/23 12:24:02;;;;;;;30.80;22.00;;;18.10;95.60;;;;;;5080147;28;20100;-88
2022/04/23 12:26:36;;;;;;;32.83;22.63;;;18.30;95.50;;;;;;5079842;28;20051;-87
2022/04/23 12:40:46;;;;;;;29.95;20.63;;;18.60;95.10;;;;;;5080390;28;20289;-86
2022/04/23 12:43:18;;;;;;;28.13;21.52;;;19.20;94.90;;;;;;5061555;28;20029;-87
2022/04/23 12:45:44;;;;;;;32.08;21.38;;;19.70;93.70;;;;;;5073709;28;20052;-87
2022/04/23 12:48:12;;;;;;;32.30;22.40;;;19.60;93.80;;;;;;5061377;28;20111;-85
2022/04/23 12:50:38;;;;;;;28.17;21.38;;;19.50;93.90;;;;;;5097433;28;20033;-85
2022/04/23 12:53:04;;;;;;;32.85;23.10;;;19.10;94.20;;;;;;5077147;28;20036;-86
2022/04/23 12:55:36;;;;;;;31.10;22.98;;;18.80;94.80;;;;;;5072031;28;20080;-85
2022/04/23 12:58:08;;;;;;;29.95;21.75;;;18.60;95.20;;;;;;5091204;28;20092;-86
2022/04/23 13:00:40;;;;;;;30.25;21.33;;;18.20;95.60;;;;;;5094362;28;20048;-86
2022/04/23 13:03:22;;;;;;;30.15;21.63;;;18.00;95.90;;;;;;5096736;28;20036;-86
2022/04/23 13:05:48;;;;;;;36.53;23.48;;;17.70;96.30;;;;;;5095067;28;20028;-85
2022/04/23 13:11:24;;;;;;;33.90;24.17;;;17.10;97.40;;;;;;5091329;28;20047;-86
2022/04/23 13:13:45;;;;;;;32.58;22.60;;;17.00;98.10;;;;;;5089482;28;20044;-86